<?xml version="1.0" encoding="UTF-8" standalone="no" ?>
<gpx xmlns="http://www.topografix.com/GPX/1/1" xmlns:xsi="http://www.w3.org/2001/XMLSchema-instance" xsi:schemaLocation="http://www.topografix.com/GPX/1/1 http://www.topografix.com/GPX/1/1/gpx.xsd" version="1.1" creator="VisuGPX - https://www.visugpx.com">
  <metadata>
    <name>StLaurentOust_Houssa_13-19km</name>
    <desc><![CDATA[gnerando idor: 7170662_7072306_7072310_7072327]]></desc>
  </metadata>
  <trk>
    <name><![CDATA[StLaurentOust_HoussaV3_18.8km-7072327]]></name>
    <extensions>
      <line xmlns="http://www.topografix.com/GPX/gpx_style/0/2">
        <color>00FFFF</color>
        <width>4</width>
      </line>
    </extensions>
    <trkseg>
      <trkpt lat="47.79441" lon="-2.31912">
        <ele>15</ele>
        <time>2023-11-13T07:27:17Z</time>
      </trkpt>
      <trkpt lat="47.79413" lon="-2.32112">
        <ele>13</ele>
        <time>2023-11-13T07:30:20Z</time>
      </trkpt>
      <trkpt lat="47.79171" lon="-2.31961">
        <ele>12</ele>
        <time>2023-11-13T07:36:10Z</time>
      </trkpt>
      <trkpt lat="47.79015" lon="-2.31734">
        <ele>11</ele>
        <time>2023-11-13T07:41:01Z</time>
      </trkpt>
      <trkpt lat="47.79055" lon="-2.31648">
        <ele>14</ele>
        <time>2023-11-13T07:42:35Z</time>
      </trkpt>
      <trkpt lat="47.78951" lon="-2.31532">
        <ele>12</ele>
        <time>2023-11-13T07:45:29Z</time>
      </trkpt>
      <trkpt lat="47.79127" lon="-2.3085">
        <ele>28</ele>
        <time>2023-11-13T07:56:24Z</time>
      </trkpt>
      <trkpt lat="47.78597" lon="-2.30489">
        <ele>47</ele>
        <time>2023-11-13T08:09:21Z</time>
      </trkpt>
      <trkpt lat="47.78695" lon="-2.30228">
        <ele>45</ele>
        <time>2023-11-13T08:13:50Z</time>
      </trkpt>
      <trkpt lat="47.78577" lon="-2.3012">
        <ele>65</ele>
        <time>2023-11-13T08:16:54Z</time>
      </trkpt>
      <trkpt lat="47.78995" lon="-2.2888">
        <ele>61</ele>
        <time>2023-11-13T08:37:38Z</time>
      </trkpt>
      <trkpt lat="47.79413" lon="-2.29009">
        <ele>60</ele>
        <time>2023-11-13T08:47:08Z</time>
      </trkpt>
      <trkpt lat="47.79407" lon="-2.28528">
        <ele>70</ele>
        <time>2023-11-13T08:54:19Z</time>
      </trkpt>
      <trkpt lat="47.79029" lon="-2.28279">
        <ele>79</ele>
        <time>2023-11-13T09:03:31Z</time>
      </trkpt>
      <trkpt lat="47.79009" lon="-2.27683">
        <ele>75</ele>
        <time>2023-11-13T09:12:26Z</time>
      </trkpt>
      <trkpt lat="47.78897" lon="-2.27421">
        <ele>93</ele>
        <time>2023-11-13T09:17:04Z</time>
      </trkpt>
      <trkpt lat="47.78695" lon="-2.27009">
        <ele>99</ele>
        <time>2023-11-13T09:24:42Z</time>
      </trkpt>
      <trkpt lat="47.78735" lon="-2.26799">
        <ele>96</ele>
        <time>2023-11-13T09:27:57Z</time>
      </trkpt>
      <trkpt lat="47.78735" lon="-2.26584">
        <ele>96</ele>
        <time>2023-11-13T09:31:10Z</time>
      </trkpt>
      <trkpt lat="47.78724" lon="-2.26318">
        <ele>95</ele>
        <time>2023-11-13T09:35:09Z</time>
      </trkpt>
      <trkpt lat="47.78706" lon="-2.26215">
        <ele>93</ele>
        <time>2023-11-13T09:36:44Z</time>
      </trkpt>
      <trkpt lat="47.78689" lon="-2.26103">
        <ele>93</ele>
        <time>2023-11-13T09:38:27Z</time>
      </trkpt>
      <trkpt lat="47.78669" lon="-2.26031">
        <ele>92</ele>
        <time>2023-11-13T09:39:37Z</time>
      </trkpt>
      <trkpt lat="47.78649" lon="-2.25958">
        <ele>90</ele>
        <time>2023-11-13T09:40:48Z</time>
      </trkpt>
      <trkpt lat="47.78608" lon="-2.26164">
        <ele>90</ele>
        <time>2023-11-13T09:44:01Z</time>
      </trkpt>
      <trkpt lat="47.78473" lon="-2.26387">
        <ele>86</ele>
        <time>2023-11-13T09:48:30Z</time>
      </trkpt>
      <trkpt lat="47.78363" lon="-2.26327">
        <ele>76</ele>
        <time>2023-11-13T09:51:06Z</time>
      </trkpt>
      <trkpt lat="47.78182" lon="-2.25374">
        <ele>65</ele>
        <time>2023-11-13T10:05:54Z</time>
      </trkpt>
      <trkpt lat="47.7772" lon="-2.25567">
        <ele>41</ele>
        <time>2023-11-13T10:16:34Z</time>
      </trkpt>
      <trkpt lat="47.7755" lon="-2.25704">
        <ele>38</ele>
        <time>2023-11-13T10:20:52Z</time>
      </trkpt>
      <trkpt lat="47.77348" lon="-2.25691">
        <ele>44</ele>
        <time>2023-11-13T10:25:22Z</time>
      </trkpt>
      <trkpt lat="47.77086" lon="-2.2582">
        <ele>51</ele>
        <time>2023-11-13T10:31:30Z</time>
      </trkpt>
      <trkpt lat="47.77094" lon="-2.25496">
        <ele>43</ele>
        <time>2023-11-13T10:36:21Z</time>
      </trkpt>
      <trkpt lat="47.76702" lon="-2.25642">
        <ele>70</ele>
        <time>2023-11-13T10:45:21Z</time>
      </trkpt>
      <trkpt lat="47.76809" lon="-2.25955">
        <ele>72</ele>
        <time>2023-11-13T10:50:35Z</time>
      </trkpt>
      <trkpt lat="47.7689" lon="-2.2702">
        <ele>88</ele>
        <time>2023-11-13T11:06:37Z</time>
      </trkpt>
      <trkpt lat="47.7682" lon="-2.27041">
        <ele>87</ele>
        <time>2023-11-13T11:08:12Z</time>
      </trkpt>
      <trkpt lat="47.76546" lon="-2.28127">
        <ele>64</ele>
        <time>2023-11-13T11:25:33Z</time>
      </trkpt>
      <trkpt lat="47.76584" lon="-2.28294">
        <ele>68</ele>
        <time>2023-11-13T11:28:11Z</time>
      </trkpt>
      <trkpt lat="47.76898" lon="-2.28183">
        <ele>80</ele>
        <time>2023-11-13T11:35:21Z</time>
      </trkpt>
      <trkpt lat="47.76904" lon="-2.28354">
        <ele>81</ele>
        <time>2023-11-13T11:37:55Z</time>
      </trkpt>
      <trkpt lat="47.77057" lon="-2.28208">
        <ele>78</ele>
        <time>2023-11-13T11:41:58Z</time>
      </trkpt>
      <trkpt lat="47.77325" lon="-2.28307">
        <ele>89</ele>
        <time>2023-11-13T11:48:06Z</time>
      </trkpt>
      <trkpt lat="47.7755" lon="-2.28509">
        <ele>84</ele>
        <time>2023-11-13T11:53:57Z</time>
      </trkpt>
      <trkpt lat="47.77936" lon="-2.28631">
        <ele>86</ele>
        <time>2023-11-13T12:02:43Z</time>
      </trkpt>
      <trkpt lat="47.77962" lon="-2.28691">
        <ele>88</ele>
        <time>2023-11-13T12:03:47Z</time>
      </trkpt>
      <trkpt lat="47.77859" lon="-2.29116">
        <ele>74</ele>
        <time>2023-11-13T12:10:32Z</time>
      </trkpt>
      <trkpt lat="47.78066" lon="-2.29232">
        <ele>88</ele>
        <time>2023-11-13T12:15:28Z</time>
      </trkpt>
      <trkpt lat="47.7798" lon="-2.29618">
        <ele>79</ele>
        <time>2023-11-13T12:21:32Z</time>
      </trkpt>
      <trkpt lat="47.7832" lon="-2.29811">
        <ele>98</ele>
        <time>2023-11-13T12:29:38Z</time>
      </trkpt>
      <trkpt lat="47.78392" lon="-2.30253">
        <ele>84</ele>
        <time>2023-11-13T12:36:26Z</time>
      </trkpt>
      <trkpt lat="47.78415" lon="-2.3073">
        <ele>77</ele>
        <time>2023-11-13T12:43:35Z</time>
      </trkpt>
      <trkpt lat="47.7828" lon="-2.30889">
        <ele>73</ele>
        <time>2023-11-13T12:47:24Z</time>
      </trkpt>
      <trkpt lat="47.78357" lon="-2.31253">
        <ele>64</ele>
        <time>2023-11-13T12:53:06Z</time>
      </trkpt>
      <trkpt lat="47.78438" lon="-2.31313">
        <ele>57</ele>
        <time>2023-11-13T12:55:07Z</time>
      </trkpt>
      <trkpt lat="47.78464" lon="-2.31172">
        <ele>68</ele>
        <time>2023-11-13T12:57:18Z</time>
      </trkpt>
      <trkpt lat="47.78418" lon="-2.31064">
        <ele>79</ele>
        <time>2023-11-13T12:59:13Z</time>
      </trkpt>
      <trkpt lat="47.78421" lon="-2.30996">
        <ele>79</ele>
        <time>2023-11-13T13:00:14Z</time>
      </trkpt>
      <trkpt lat="47.78487" lon="-2.31125">
        <ele>66</ele>
        <time>2023-11-13T13:02:39Z</time>
      </trkpt>
      <trkpt lat="47.78528" lon="-2.3106">
        <ele>57</ele>
        <time>2023-11-13T13:03:59Z</time>
      </trkpt>
      <trkpt lat="47.78516" lon="-2.30871">
        <ele>58</ele>
        <time>2023-11-13T13:06:50Z</time>
      </trkpt>
      <trkpt lat="47.78476" lon="-2.30657">
        <ele>65</ele>
        <time>2023-11-13T13:10:09Z</time>
      </trkpt>
      <trkpt lat="47.78545" lon="-2.30498">
        <ele>56</ele>
        <time>2023-11-13T13:12:58Z</time>
      </trkpt>
      <trkpt lat="47.78574" lon="-2.30567">
        <ele>47</ele>
        <time>2023-11-13T13:14:11Z</time>
      </trkpt>
      <trkpt lat="47.7862" lon="-2.30481">
        <ele>45</ele>
        <time>2023-11-13T13:15:50Z</time>
      </trkpt>
      <trkpt lat="47.79136" lon="-2.30811">
        <ele>27</ele>
        <time>2023-11-13T13:28:19Z</time>
      </trkpt>
      <trkpt lat="47.78951" lon="-2.31494">
        <ele>13</ele>
        <time>2023-11-13T13:39:20Z</time>
      </trkpt>
      <trkpt lat="47.79122" lon="-2.31682">
        <ele>15</ele>
        <time>2023-11-13T13:44:03Z</time>
      </trkpt>
    </trkseg>
  </trk>
</gpx>